Time;durP1;ratioP1;P1;durP2;ratioP2;P2;SDS_P1;SDS_P2;PMS_P1;PMS_P2;Temp;Humidity;BMP_temperature;BMP_pressure;BME280_temperature;BME280_humidity;BME280_pressure;Samples;Min_cycle;Max_cycle;Signal;HPM_P1;HPM_P2
2022/12/31 00:01:13;;;;;;;43.25;17.70;;;6.00;99.90;;;;;;4907487;28;20059;-68
2022/12/31 00:06:18;;;;;;;59.55;18.35;;;6.10;99.90;;;;;;4924920;28;20050;-67
2022/12/31 00:08:44;;;;;;;51.97;18.90;;;6.10;99.90;;;;;;4933871;28;20035;-67
2022/12/31 00:11:10;;;;;;;49.13;16.83;;;6.00;99.90;;;;;;4933148;28;20051;-68
2022/12/31 00:13:36;;;;;;;40.10;17.30;;;6.00;99.90;;;;;;4925797;28;20065;-71
2022/12/31 00:16:07;;;;;;;35.35;16.92;;;6.00;99.90;;;;;;4925065;28;20134;-71
2022/12/31 00:18:33;;;;;;;33.70;16.13;;;6.00;99.90;;;;;;4923238;28;20199;-69
2022/12/31 00:21:00;;;;;;;36.40;15.90;;;6.10;99.90;;;;;;4926255;28;20051;-72
2022/12/31 00:23:26;;;;;;;41.92;16.75;;;6.10;99.90;;;;;;4931492;28;20051;-72
2022/12/31 00:25:52;;;;;;;38.13;15.88;;;6.00;99.90;;;;;;4929728;28;20113;-72
2022/12/31 00:28:17;;;;;;;35.50;16.45;;;6.00;99.90;;;;;;4918387;28;21012;-72
2022/12/31 00:30:43;;;;;;;36.33;16.77;;;6.00;99.90;;;;;;4926680;28;20059;-72
2022/12/31 00:33:08;;;;;;;36.80;15.98;;;6.00;99.90;;;;;;4921636;28;20666;-72
2022/12/31 00:35:35;;;;;;;47.42;15.93;;;6.00;99.90;;;;;;4903401;28;20051;-69
2022/12/31 00:38:01;;;;;;;50.72;16.52;;;6.00;99.90;;;;;;4896445;28;21221;-69
2022/12/31 00:40:28;;;;;;;46.25;15.25;;;6.00;99.90;;;;;;4926304;28;20043;-68
2022/12/31 00:42:53;;;;;;;34.40;16.30;;;6.00;99.90;;;;;;4927377;28;20035;-66
2022/12/31 00:45:19;;;;;;;36.80;16.00;;;6.00;99.90;;;;;;4921336;28;22288;-67
2022/12/31 00:47:45;;;;;;;37.67;16.45;;;5.90;99.90;;;;;;4914021;28;20520;-67
2022/12/31 00:50:10;;;;;;;44.47;17.08;;;6.00;99.90;;;;;;4922607;28;20765;-68
2022/12/31 00:52:36;;;;;;;51.83;21.20;;;6.00;99.90;;;;;;4918943;28;20496;-69
2022/12/31 00:55:02;;;;;;;53.88;22.33;;;6.00;99.90;;;;;;4901137;28;20559;-67
2022/12/31 00:57:27;;;;;;;52.92;22.60;;;6.00;99.90;;;;;;4917028;28;20118;-68
2022/12/31 00:59:53;;;;;;;54.92;24.65;;;6.00;99.90;;;;;;4914430;28;20073;-67
2022/12/31 01:02:18;;;;;;;53.55;22.20;;;6.00;99.90;;;;;;4917009;28;20227;-68
2022/12/31 01:04:44;;;;;;;57.45;22.35;;;6.00;99.90;;;;;;4910934;28;20147;-69
2022/12/31 01:07:10;;;;;;;43.95;18.98;;;6.00;99.90;;;;;;4895460;28;20099;-69
2022/12/31 01:09:35;;;;;;;43.65;19.27;;;6.00;99.90;;;;;;4913948;28;20134;-68
2022/12/31 01:12:02;;;;;;;42.70;18.33;;;6.00;99.90;;;;;;4918310;28;20950;-68
2022/12/31 01:14:27;;;;;;;45.58;18.40;;;6.00;99.90;;;;;;4902254;28;21012;-67
2022/12/31 01:16:53;;;;;;;49.85;19.85;;;6.00;99.90;;;;;;4916633;28;20055;-67
2022/12/31 01:21:48;;;;;;;48.60;22.45;;;5.90;99.90;;;;;;4899166;28;20974;-68
2022/12/31 01:24:15;;;;;;;48.78;20.98;;;5.90;99.90;;;;;;4917581;28;20031;-66
2022/12/31 01:26:41;;;;;;;46.90;20.58;;;5.90;99.90;;;;;;4921276;28;21189;-66
2022/12/31 01:29:08;;;;;;;44.08;20.13;;;5.90;99.90;;;;;;4908359;28;20111;-67
2022/12/31 01:31:35;;;;;;;44.80;20.15;;;5.90;99.90;;;;;;4917995;28;20063;-67
2022/12/31 01:34:01;;;;;;;46.65;20.80;;;5.90;99.90;;;;;;4920623;28;20062;-67
2022/12/31 01:36:28;;;;;;;46.20;19.92;;;5.90;99.90;;;;;;4908424;28;20078;-67
2022/12/31 01:38:56;;;;;;;35.55;17.60;;;6.00;99.90;;;;;;4925688;28;20049;-67
2022/12/31 01:41:29;;;;;;;40.55;16.90;;;6.00;99.90;;;;;;4920737;28;20047;-67
2022/12/31 01:44:00;;;;;;;39.30;16.45;;;6.10;99.90;;;;;;4919365;28;20299;-67
2022/12/31 01:46:39;;;;;;;38.90;17.17;;;6.00;99.90;;;;;;4920248;28;20792;-67
2022/12/31 01:49:09;;;;;;;42.28;17.23;;;6.00;99.90;;;;;;4910844;28;20250;-67
2022/12/31 01:51:37;;;;;;;38.67;17.55;;;6.00;99.90;;;;;;4921492;28;20050;-67
2022/12/31 01:54:07;;;;;;;40.53;18.13;;;6.00;99.90;;;;;;4917538;28;20031;-67
2022/12/31 01:56:34;;;;;;;43.30;17.85;;;6.00;99.90;;;;;;4920348;28;20094;-67
2022/12/31 01:59:03;;;;;;;40.63;18.15;;;6.10;99.90;;;;;;4919809;28;20035;-67
2022/12/31 02:01:31;;;;;;;38.97;18.85;;;6.10;99.90;;;;;;4919374;28;20046;-67
2022/12/31 02:03:59;;;;;;;38.10;18.95;;;6.10;99.90;;;;;;4927860;28;21320;-68
2022/12/31 02:06:32;;;;;;;39.08;19.73;;;6.10;99.90;;;;;;4910352;28;20505;-66
2022/12/31 02:08:58;;;;;;;42.92;19.50;;;6.10;99.90;;;;;;4928676;28;20328;-68
2022/12/31 02:11:36;;;;;;;41.83;19.42;;;6.10;99.90;;;;;;4914400;28;20064;-68
2022/12/31 02:14:12;;;;;;;39.72;18.55;;;6.10;99.90;;;;;;4924512;28;20047;-69
2022/12/31 02:16:46;;;;;;;48.45;18.17;;;6.10;99.90;;;;;;4917672;28;20035;-68
2022/12/31 02:19:36;;;;;;;46.58;18.42;;;6.10;99.90;;;;;;4920714;28;20028;-68
2022/12/31 02:22:06;;;;;;;43.95;17.75;;;6.10;99.90;;;;;;4916235;28;20058;-68
2022/12/31 02:25:00;;;;;;;35.67;16.73;;;6.00;99.90;;;;;;4920312;28;20583;-68
2022/12/31 02:27:42;;;;;;;46.17;17.85;;;5.90;99.90;;;;;;4922767;28;20082;-67
2022/12/31 02:30:18;;;;;;;47.35;17.60;;;5.90;99.90;;;;;;4925812;28;20035;-66
2022/12/31 02:32:49;;;;;;;35.95;16.77;;;5.90;99.90;;;;;;4907448;28;20118;-66
2022/12/31 02:35:31;;;;;;;42.60;16.33;;;5.90;99.90;;;;;;4920664;28;20047;-67
2022/12/31 02:38:01;;;;;;;45.35;16.75;;;5.90;99.90;;;;;;4924846;28;20261;-66
2022/12/31 02:40:27;;;;;;;44.90;17.65;;;5.90;99.90;;;;;;4927757;28;20051;-67
2022/12/31 02:42:53;;;;;;;29.65;16.58;;;5.90;99.90;;;;;;4907710;28;20047;-67
2022/12/31 02:45:26;;;;;;;33.25;17.30;;;5.90;99.90;;;;;;4907591;28;20091;-66
2022/12/31 02:48:38;;;;;;;36.80;17.45;;;5.80;99.90;;;;;;4904642;28;20054;-66
2022/12/31 02:51:11;;;;;;;35.22;17.60;;;5.80;99.90;;;;;;4897679;28;20046;-67
2022/12/31 02:54:15;;;;;;;33.50;15.82;;;5.80;99.90;;;;;;4929816;28;20416;-66
2022/12/31 02:56:56;;;;;;;25.92;15.18;;;5.90;99.90;;;;;;4917523;28;20059;-67
2022/12/31 03:02:22;;;;;;;20.05;13.10;;;5.90;99.90;;;;;;4924477;28;20061;-66
2022/12/31 03:04:51;;;;;;;19.85;12.85;;;5.90;99.90;;;;;;4913523;28;20094;-67
2022/12/31 03:07:31;;;;;;;16.33;11.82;;;5.90;99.90;;;;;;4916956;28;20891;-67
2022/12/31 03:09:58;;;;;;;17.58;11.18;;;5.90;99.90;;;;;;4924949;28;20043;-67
2022/12/31 03:15:19;;;;;;;15.98;11.48;;;5.70;99.90;;;;;;4927068;28;20045;-67
2022/12/31 03:22:26;;;;;;;14.90;10.68;;;5.80;99.90;;;;;;4922312;28;20040;-67
2022/12/31 03:26:40;;;;;;;22.30;12.80;;;5.70;99.90;;;;;;4924730;28;20155;-67
2022/12/31 03:29:06;;;;;;;21.27;12.93;;;5.70;99.90;;;;;;4922905;28;20462;-67
2022/12/31 03:31:31;;;;;;;20.90;14.05;;;5.70;99.90;;;;;;4924098;28;20114;-67
2022/12/31 03:33:57;;;;;;;18.95;13.32;;;5.80;99.90;;;;;;4915819;28;20067;-67
2022/12/31 03:36:23;;;;;;;21.38;13.30;;;5.80;99.90;;;;;;4910886;28;20119;-67
2022/12/31 03:38:48;;;;;;;24.70;13.48;;;5.80;99.90;;;;;;4918923;28;20043;-67
2022/12/31 03:41:14;;;;;;;20.02;12.90;;;5.80;99.90;;;;;;4925746;28;20043;-67
2022/12/31 03:43:40;;;;;;;21.55;13.35;;;5.80;99.90;;;;;;4904611;28;20526;-67
2022/12/31 03:46:05;;;;;;;17.77;12.40;;;5.70;99.90;;;;;;4921158;28;20039;-67
2022/12/31 03:48:31;;;;;;;22.08;14.63;;;5.70;99.90;;;;;;4924728;28;20043;-67
2022/12/31 03:50:56;;;;;;;23.20;14.57;;;5.70;99.90;;;;;;4921844;28;20591;-67
2022/12/31 03:55:54;;;;;;;24.15;15.00;;;5.80;99.90;;;;;;4918109;28;20083;-67
2022/12/31 03:58:20;;;;;;;21.00;14.40;;;5.90;99.90;;;;;;4923308;28;20543;-67
2022/12/31 04:00:46;;;;;;;26.67;16.77;;;5.90;99.90;;;;;;4929679;28;20035;-67
2022/12/31 04:03:11;;;;;;;26.33;16.77;;;6.00;99.90;;;;;;4923418;28;20407;-67
2022/12/31 04:05:37;;;;;;;26.90;17.15;;;6.00;99.90;;;;;;4927613;28;20057;-67
2022/12/31 04:08:03;;;;;;;28.20;17.20;;;6.00;99.90;;;;;;4922430;28;20085;-67
2022/12/31 04:10:29;;;;;;;28.30;17.27;;;6.00;99.90;;;;;;4925798;28;20039;-67
2022/12/31 04:12:54;;;;;;;24.50;16.20;;;6.00;99.90;;;;;;4917980;28;20054;-67
2022/12/31 04:15:20;;;;;;;20.52;14.60;;;6.00;99.90;;;;;;4917726;28;20155;-67
2022/12/31 04:17:47;;;;;;;26.08;16.02;;;6.10;99.90;;;;;;4917360;28;20849;-67
2022/12/31 04:20:13;;;;;;;22.48;15.48;;;6.10;99.90;;;;;;4917371;28;20748;-66
2022/12/31 04:22:39;;;;;;;24.75;15.98;;;6.00;99.90;;;;;;4915483;28;20043;-67
2022/12/31 04:25:10;;;;;;;25.88;16.75;;;6.00;99.90;;;;;;4922357;28;20369;-67
2022/12/31 04:27:39;;;;;;;24.63;15.27;;;6.00;99.90;;;;;;4913414;28;20554;-67
2022/12/31 04:30:06;;;;;;;21.63;14.27;;;6.00;99.90;;;;;;4909638;28;20378;-67
2022/12/31 04:32:32;;;;;;;26.98;15.98;;;6.00;99.90;;;;;;4910852;28;20039;-67
2022/12/31 04:34:57;;;;;;;27.35;16.90;;;6.00;99.90;;;;;;4919617;28;20506;-67
2022/12/31 04:37:23;;;;;;;29.55;15.57;;;6.10;99.90;;;;;;4898423;28;20620;-67
2022/12/31 04:39:49;;;;;;;25.08;15.75;;;6.10;99.90;;;;;;4914341;28;20066;-67
2022/12/31 04:42:14;;;;;;;22.20;14.30;;;6.00;99.90;;;;;;4925838;28;20546;-67
2022/12/31 04:44:40;;;;;;;32.17;16.45;;;6.00;99.90;;;;;;4921869;28;21979;-67
2022/12/31 04:47:06;;;;;;;26.85;16.27;;;6.00;99.90;;;;;;4911403;28;20174;-67
2022/12/31 04:49:31;;;;;;;28.83;15.63;;;6.10;99.90;;;;;;4914735;28;20035;-67
2022/12/31 04:51:57;;;;;;;29.75;16.20;;;6.10;99.90;;;;;;4916746;28;20050;-67
2022/12/31 04:54:23;;;;;;;30.17;17.75;;;6.10;99.90;;;;;;4912090;28;20166;-67
2022/12/31 04:56:48;;;;;;;29.60;16.08;;;6.10;99.90;;;;;;4916929;28;20053;-67
2022/12/31 04:59:14;;;;;;;27.83;15.95;;;6.10;99.90;;;;;;4901506;28;20095;-67
2022/12/31 05:01:39;;;;;;;28.67;16.23;;;6.00;99.90;;;;;;4917333;28;20585;-67
2022/12/31 05:04:05;;;;;;;29.38;17.05;;;6.10;99.90;;;;;;4915322;28;21082;-67
2022/12/31 05:06:31;;;;;;;33.30;17.98;;;6.20;99.90;;;;;;4919837;28;20059;-67
2022/12/31 05:08:56;;;;;;;40.42;20.25;;;6.20;99.90;;;;;;4918729;28;20648;-67
2022/12/31 05:11:22;;;;;;;35.45;19.73;;;6.10;99.90;;;;;;4915644;28;20111;-67
2022/12/31 05:13:48;;;;;;;37.25;20.83;;;6.10;99.90;;;;;;4923711;28;20042;-67
2022/12/31 05:16:13;;;;;;;35.40;19.00;;;6.10;99.90;;;;;;4905075;28;20094;-67
2022/12/31 05:18:39;;;;;;;38.53;19.02;;;6.10;99.90;;;;;;4923715;28;20031;-67
2022/12/31 05:21:05;;;;;;;37.40;19.27;;;6.10;99.90;;;;;;4924341;28;20039;-67
2022/12/31 05:23:31;;;;;;;40.03;19.02;;;6.10;99.90;;;;;;4915026;28;20623;-67
2022/12/31 05:25:58;;;;;;;37.65;19.30;;;6.10;99.90;;;;;;4912433;28;20087;-67
2022/12/31 05:28:24;;;;;;;37.55;19.48;;;6.10;99.90;;;;;;4926713;28;20057;-67
2022/12/31 05:30:50;;;;;;;41.15;18.83;;;6.20;99.90;;;;;;4928244;28;20486;-67
2022/12/31 05:33:16;;;;;;;39.30;20.30;;;6.10;99.90;;;;;;4920735;28;20163;-67
2022/12/31 05:35:42;;;;;;;39.67;20.67;;;6.20;99.90;;;;;;4925946;28;20057;-68
2022/12/31 05:38:07;;;;;;;47.42;22.27;;;6.10;99.90;;;;;;4921706;28;20043;-67
2022/12/31 05:40:33;;;;;;;44.53;20.73;;;6.10;99.90;;;;;;4911880;28;20570;-68
2022/12/31 05:42:59;;;;;;;47.90;21.48;;;6.00;99.90;;;;;;4926662;28;20768;-67
2022/12/31 05:45:24;;;;;;;40.28;19.55;;;6.00;99.90;;;;;;4922698;28;21020;-67
2022/12/31 05:47:50;;;;;;;51.95;21.70;;;6.10;99.90;;;;;;4920143;28;20089;-67
2022/12/31 05:50:16;;;;;;;42.15;20.50;;;6.10;99.90;;;;;;4921683;28;20770;-68
2022/12/31 05:52:44;;;;;;;43.75;20.13;;;6.10;99.90;;;;;;4920759;28;20113;-67
2022/12/31 05:55:11;;;;;;;40.10;18.20;;;6.10;99.90;;;;;;4909089;28;20051;-67
2022/12/31 05:57:37;;;;;;;43.83;18.40;;;6.10;99.90;;;;;;4929014;28;20508;-67
2022/12/31 06:02:27;;;;;;;35.78;17.13;;;6.00;99.90;;;;;;4920942;28;20908;-67
2022/12/31 06:04:54;;;;;;;37.42;18.08;;;6.00;99.90;;;;;;4922252;28;20051;-68
2022/12/31 06:07:24;;;;;;;39.17;17.48;;;6.00;99.90;;;;;;4928269;28;20122;-67
2022/12/31 06:09:50;;;;;;;41.35;18.80;;;6.00;99.90;;;;;;4912976;28;20043;-67
2022/12/31 06:12:15;;;;;;;42.40;19.02;;;6.00;99.90;;;;;;4924273;28;20835;-68
2022/12/31 06:14:42;;;;;;;40.47;18.52;;;6.00;99.90;;;;;;4911847;28;20486;-67
2022/12/31 06:17:08;;;;;;;44.85;18.90;;;6.10;99.90;;;;;;4922650;28;20048;-67
2022/12/31 06:21:59;;;;;;;47.80;18.35;;;6.10;99.90;;;;;;4929058;28;20050;-68
2022/12/31 06:24:24;;;;;;;45.60;19.25;;;6.10;99.90;;;;;;4919733;28;20062;-68
2022/12/31 06:29:15;;;;;;;40.75;18.77;;;5.90;99.90;;;;;;4906127;28;20079;-67
2022/12/31 06:31:41;;;;;;;44.92;19.48;;;5.90;99.90;;;;;;4901659;28;20090;-68
2022/12/31 06:34:06;;;;;;;43.17;20.15;;;5.90;99.90;;;;;;4923249;28;20051;-68
2022/12/31 06:36:32;;;;;;;51.97;21.13;;;6.00;99.90;;;;;;4917714;28;20119;-68
2022/12/31 06:38:58;;;;;;;57.70;23.98;;;6.00;99.90;;;;;;4909088;28;20722;-67
2022/12/31 06:41:23;;;;;;;51.25;22.42;;;6.00;99.90;;;;;;4922132;28;20430;-67
2022/12/31 06:43:49;;;;;;;46.80;20.75;;;6.10;99.90;;;;;;4928150;28;20041;-67
2022/12/31 06:46:16;;;;;;;39.33;20.75;;;6.10;99.90;;;;;;4928007;28;20040;-67
2022/12/31 06:48:43;;;;;;;47.58;22.05;;;6.10;99.90;;;;;;4916331;28;20035;-67
2022/12/31 06:51:18;;;;;;;48.33;22.45;;;6.00;99.90;;;;;;4920094;28;21211;-68
2022/12/31 06:53:48;;;;;;;55.55;22.67;;;6.10;99.90;;;;;;4924844;28;21513;-67
2022/12/31 06:58:46;;;;;;;62.90;32.45;;;6.10;99.90;;;;;;4911290;28;20086;-69
2022/12/31 07:01:39;;;;;;;46.30;19.60;;;6.10;99.90;;;;;;4889362;28;20055;-69
2022/12/31 07:04:23;;;;;;;52.25;20.77;;;6.00;99.90;;;;;;4927777;28;20066;-69
2022/12/31 07:07:22;;;;;;;48.72;20.60;;;5.90;99.90;;;;;;4911780;28;20066;-69
2022/12/31 07:09:51;;;;;;;57.97;23.98;;;5.90;99.90;;;;;;4916093;28;20039;-69
2022/12/31 07:14:56;;;;;;;60.42;25.88;;;6.00;99.90;;;;;;4920801;28;20526;-68
2022/12/31 07:22:45;;;;;;;56.08;24.08;;;6.00;99.90;;;;;;4928625;28;20046;-68
2022/12/31 07:25:18;;;;;;;39.78;19.58;;;6.10;99.90;;;;;;4916404;28;20134;-67
2022/12/31 07:30:58;;;;;;;50.35;20.77;;;6.10;99.90;;;;;;4912622;28;20121;-68
2022/12/31 07:33:32;;;;;;;50.28;20.90;;;6.10;99.90;;;;;;4917157;28;20066;-68
2022/12/31 07:36:06;;;;;;;55.75;19.13;;;6.00;99.90;;;;;;4917997;28;20456;-67
2022/12/31 07:38:51;;;;;;;42.65;21.02;;;6.00;99.90;;;;;;4918129;28;20122;-67
2022/12/31 07:43:45;;;;;;;41.33;18.75;;;6.00;99.90;;;;;;4922797;28;20051;-67
2022/12/31 07:48:36;;;;;;;51.67;17.88;;;6.10;99.90;;;;;;4919083;28;20347;-67
2022/12/31 07:51:02;;;;;;;41.45;17.90;;;6.10;99.90;;;;;;4914005;28;20556;-67
2022/12/31 07:53:28;;;;;;;56.88;18.20;;;6.10;99.90;;;;;;4923719;28;20106;-67
2022/12/31 07:56:02;;;;;;;46.17;18.48;;;6.00;99.90;;;;;;4910586;28;20059;-66
2022/12/31 07:58:46;;;;;;;43.47;18.05;;;6.10;99.90;;;;;;4911037;28;20051;-66
2022/12/31 08:01:15;;;;;;;42.88;17.73;;;6.10;99.90;;;;;;4923771;28;20813;-66
2022/12/31 08:06:22;;;;;;;44.70;21.92;;;6.10;99.90;;;;;;4916678;28;20054;-66
2022/12/31 08:09:15;;;;;;;44.28;20.20;;;6.20;99.90;;;;;;4918401;28;20187;-66
2022/12/31 08:11:59;;;;;;;43.42;20.52;;;6.30;99.90;;;;;;4907366;28;20538;-66
2022/12/31 08:14:26;;;;;;;45.00;18.67;;;6.30;99.90;;;;;;4915495;28;21004;-67
2022/12/31 08:16:53;;;;;;;38.28;18.05;;;6.30;99.90;;;;;;4920156;28;20142;-67
2022/12/31 08:19:24;;;;;;;39.45;18.35;;;6.40;99.90;;;;;;4919879;28;20404;-67
2022/12/31 08:22:00;;;;;;;38.63;18.88;;;6.40;99.90;;;;;;4921826;28;20040;-67
2022/12/31 08:24:53;;;;;;;45.35;18.38;;;6.40;99.90;;;;;;4911739;28;21099;-68
2022/12/31 08:27:46;;;;;;;35.33;18.05;;;6.30;99.90;;;;;;4906635;28;20059;-68
2022/12/31 08:30:13;;;;;;;32.47;17.30;;;6.30;99.90;;;;;;4909696;28;20066;-67
2022/12/31 08:33:06;;;;;;;32.17;17.20;;;6.30;99.90;;;;;;4916220;28;20082;-66
2022/12/31 08:35:57;;;;;;;40.10;17.52;;;6.30;99.90;;;;;;4897106;28;20043;-66
2022/12/31 08:38:37;;;;;;;35.17;17.63;;;6.20;99.90;;;;;;4917585;28;20078;-66
2022/12/31 08:41:20;;;;;;;37.00;16.80;;;6.10;99.90;;;;;;4917529;28;22183;-66
2022/12/31 08:43:55;;;;;;;34.40;17.60;;;6.10;99.90;;;;;;4920395;28;20067;-66
2022/12/31 08:46:45;;;;;;;33.13;17.77;;;6.10;99.90;;;;;;4906020;28;20051;-66
2022/12/31 08:49:13;;;;;;;42.58;21.02;;;6.30;99.90;;;;;;4921244;28;20042;-66
2022/12/31 08:51:39;;;;;;;35.92;19.10;;;6.40;99.90;;;;;;4909368;28;20059;-67
2022/12/31 08:54:05;;;;;;;30.30;15.43;;;6.50;99.90;;;;;;4901236;28;20055;-66
2022/12/31 08:56:36;;;;;;;32.55;18.25;;;6.50;99.90;;;;;;4899374;28;20058;-68
2022/12/31 08:59:19;;;;;;;31.02;17.45;;;6.40;99.90;;;;;;4920117;28;20051;-67
2022/12/31 09:02:01;;;;;;;29.70;14.98;;;6.40;99.90;;;;;;4921597;28;20075;-68
2022/12/31 09:04:29;;;;;;;;;;;6.30;99.90;;;;;;4912481;28;20047;-68
2022/12/31 09:06:59;;;;;;;29.42;14.63;;;6.30;99.90;;;;;;4898909;28;24248;-67
2022/12/31 09:09:39;;;;;;;28.52;15.23;;;6.20;99.90;;;;;;4926672;28;20521;-67
2022/12/31 09:12:24;;;;;;;27.70;15.65;;;6.20;99.90;;;;;;4918530;28;20150;-67
2022/12/31 09:14:54;;;;;;;25.10;14.50;;;6.20;99.90;;;;;;4916885;28;20063;-66
2022/12/31 09:17:43;;;;;;;30.75;16.48;;;6.20;99.90;;;;;;4924812;28;20202;-66
2022/12/31 09:20:30;;;;;;;27.13;15.48;;;6.30;99.90;;;;;;4927268;28;20141;-66
2022/12/31 09:22:57;;;;;;;31.88;16.85;;;6.30;99.90;;;;;;4928350;28;20053;-65
2022/12/31 09:25:24;;;;;;;35.22;19.15;;;6.40;99.90;;;;;;4914213;28;20099;-68
2022/12/31 09:28:24;;;;;;;31.30;17.42;;;6.40;99.90;;;;;;4904445;28;20039;-67
2022/12/31 09:30:53;;;;;;;34.42;18.15;;;6.50;99.90;;;;;;4908567;28;20110;-68
2022/12/31 09:33:40;;;;;;;31.58;17.77;;;6.60;99.90;;;;;;4895399;29;20091;-69
2022/12/31 09:36:13;;;;;;;31.25;17.90;;;6.60;99.90;;;;;;4895595;28;20344;-70
2022/12/31 09:38:51;;;;;;;28.15;16.70;;;6.70;99.90;;;;;;4933374;28;20082;-70
2022/12/31 09:42:04;;;;;;;31.48;17.55;;;6.70;99.90;;;;;;4930255;28;20077;-69
2022/12/31 09:44:49;;;;;;;35.75;18.85;;;6.70;99.90;;;;;;4864608;28;20524;-70
2022/12/31 09:47:51;;;;;;;34.70;21.13;;;6.80;99.90;;;;;;4892110;28;1153703;-71
2022/12/31 09:50:30;;;;;;;38.67;20.02;;;6.90;99.90;;;;;;4915695;28;20051;-71
2022/12/31 09:53:05;;;;;;;29.42;17.10;;;7.00;99.90;;;;;;4920932;28;20130;-70
2022/12/31 09:55:48;;;;;;;33.42;18.70;;;7.10;99.90;;;;;;4909353;28;20062;-71
2022/12/31 09:58:17;;;;;;;35.38;19.35;;;7.10;99.90;;;;;;4915425;29;20051;-71
2022/12/31 10:00:51;;;;;;;35.42;18.48;;;7.10;99.90;;;;;;4930468;28;20425;-71
2022/12/31 10:03:28;;;;;;;26.45;17.10;;;7.10;99.90;;;;;;4915356;28;20054;-71
2022/12/31 10:06:08;;;;;;;30.10;17.67;;;7.10;99.90;;;;;;4930557;28;20055;-71
2022/12/31 10:08:46;;;;;;;33.65;17.25;;;7.20;99.90;;;;;;4921000;28;20074;-71
2022/12/31 10:11:27;;;;;;;28.27;15.32;;;7.20;99.90;;;;;;4925387;28;20048;-71
2022/12/31 10:14:17;;;;;;;38.50;21.23;;;7.20;99.90;;;;;;4931357;28;20385;-71
2022/12/31 10:17:00;;;;;;;33.95;20.40;;;7.30;99.90;;;;;;4927578;28;20115;-70
2022/12/31 10:19:51;;;;;;;33.72;21.02;;;7.30;99.90;;;;;;4928461;28;20166;-72
2022/12/31 10:23:07;;;;;;;30.85;17.30;;;7.20;99.90;;;;;;4925917;28;20951;-71
2022/12/31 10:25:48;;;;;;;30.33;16.45;;;7.20;99.90;;;;;;4899775;28;20518;-70
2022/12/31 10:28:35;;;;;;;28.08;17.35;;;7.10;99.90;;;;;;4930468;28;20144;-71
2022/12/31 10:31:16;;;;;;;29.55;17.00;;;7.10;99.90;;;;;;4929605;28;20634;-71
2022/12/31 10:36:22;;;;;;;29.38;16.92;;;7.20;99.90;;;;;;4921000;28;20063;-71
2022/12/31 10:38:47;;;;;;;29.08;17.77;;;7.20;99.90;;;;;;4915460;28;20055;-70
2022/12/31 10:41:34;;;;;;;29.88;17.48;;;7.30;99.90;;;;;;4930797;28;20036;-71
2022/12/31 10:44:22;;;;;;;30.52;17.80;;;7.30;99.90;;;;;;4907092;28;20051;-71
2022/12/31 10:47:11;;;;;;;28.38;17.50;;;7.30;99.90;;;;;;4928141;28;20561;-71
2022/12/31 10:49:48;;;;;;;29.63;16.90;;;7.30;99.90;;;;;;4917033;28;20090;-71
2022/12/31 10:52:19;;;;;;;27.92;17.13;;;7.30;99.90;;;;;;4925662;28;20069;-71
2022/12/31 10:57:31;;;;;;;34.53;18.83;;;7.40;99.90;;;;;;4923256;28;20475;-71
2022/12/31 11:00:20;;;;;;;34.80;19.13;;;7.40;99.90;;;;;;4902695;28;20039;-70
2022/12/31 11:02:52;;;;;;;38.22;19.95;;;7.40;99.90;;;;;;4903939;28;20301;-70
2022/12/31 11:05:49;;;;;;;36.63;20.33;;;7.40;99.90;;;;;;4919175;28;20042;-70
2022/12/31 11:08:53;;;;;;;40.10;22.60;;;7.50;99.90;;;;;;4932092;28;20039;-71
2022/12/31 11:11:48;;;;;;;38.25;21.75;;;7.50;99.90;;;;;;4932661;28;20039;-70
2022/12/31 11:16:48;;;;;;;;;;;7.50;99.90;;;;;;4905412;28;20066;-71
2022/12/31 11:19:17;;;;;;;33.60;19.20;;;7.50;99.90;;;;;;4902063;28;19930;-71
2022/12/31 11:22:07;;;;;;;40.58;21.02;;;7.40;99.90;;;;;;4922435;28;20046;-71
2022/12/31 11:24:58;;;;;;;39.35;21.52;;;7.50;99.90;;;;;;4920874;28;20042;-71
2022/12/31 11:27:45;;;;;;;39.58;21.15;;;7.40;99.90;;;;;;4932637;28;20495;-71
2022/12/31 11:30:40;;;;;;;41.50;20.63;;;7.40;99.90;;;;;;4927310;28;20056;-72
2022/12/31 11:33:37;;;;;;;44.20;22.90;;;7.50;99.90;;;;;;4917042;28;20114;-71
2022/12/31 11:36:35;;;;;;;40.65;20.85;;;7.50;99.90;;;;;;4912752;28;20158;-71
2022/12/31 11:39:12;;;;;;;42.35;21.80;;;7.50;99.90;;;;;;4929515;28;20047;-70
2022/12/31 11:41:57;;;;;;;44.72;23.02;;;7.40;99.90;;;;;;4929309;28;20045;-71
2022/12/31 11:44:31;;;;;;;40.72;22.13;;;7.40;99.90;;;;;;4933697;28;20043;-71
2022/12/31 11:47:14;;;;;;;45.47;22.83;;;7.50;99.90;;;;;;4937192;28;20128;-71
2022/12/31 11:49:45;;;;;;;42.58;22.42;;;7.50;99.90;;;;;;4936973;28;20065;-71
2022/12/31 11:54:56;;;;;;;43.00;23.50;;;7.50;99.90;;;;;;4925053;28;20059;-70
2022/12/31 11:57:37;;;;;;;53.35;30.52;;;7.60;99.90;;;;;;4928439;28;20038;-70
2022/12/31 12:00:17;;;;;;;47.73;26.43;;;7.60;99.90;;;;;;4926153;28;20042;-68
2022/12/31 12:03:03;;;;;;;53.13;25.92;;;7.60;99.90;;;;;;4899757;28;20051;-67
2022/12/31 12:05:29;;;;;;;50.55;24.90;;;7.60;99.90;;;;;;4908570;29;20063;-68
2022/12/31 12:07:56;;;;;;;44.63;23.58;;;7.70;99.90;;;;;;4908974;29;20040;-68
2022/12/31 12:10:28;;;;;;;53.17;29.23;;;7.70;99.90;;;;;;4911210;29;20050;-68
2022/12/31 12:12:55;;;;;;;64.13;36.95;;;7.70;99.90;;;;;;4914133;29;20046;-68
2022/12/31 12:15:31;;;;;;;49.53;27.05;;;7.80;99.90;;;;;;4911859;29;20032;-68
2022/12/31 12:18:00;;;;;;;54.88;28.13;;;7.70;99.90;;;;;;4906007;29;20222;-68
2022/12/31 12:20:37;;;;;;;48.58;26.90;;;7.70;99.90;;;;;;4914855;28;20763;-67
2022/12/31 12:23:14;;;;;;;50.67;27.25;;;7.70;99.90;;;;;;4921007;28;20042;-67
2022/12/31 12:25:42;;;;;;;56.13;29.52;;;7.80;99.90;;;;;;4896367;28;20531;-68
2022/12/31 12:28:17;;;;;;;57.55;30.80;;;7.80;99.90;;;;;;4916993;28;20043;-67
2022/12/31 12:30:43;;;;;;;49.42;27.15;;;7.80;99.90;;;;;;4912284;28;20046;-68
2022/12/31 12:33:17;;;;;;;51.45;29.02;;;7.80;99.90;;;;;;4926364;28;20059;-68
2022/12/31 12:35:43;;;;;;;50.20;27.25;;;7.90;99.90;;;;;;4918679;28;20102;-67
2022/12/31 12:38:21;;;;;;;56.80;31.00;;;7.90;99.90;;;;;;4926664;28;20040;-70
2022/12/31 12:40:58;;;;;;;36.50;21.23;;;7.90;99.90;;;;;;4931112;28;20049;-70
2022/12/31 12:43:29;;;;;;;33.42;19.88;;;7.90;99.90;;;;;;4923751;28;20040;-71
2022/12/31 12:45:59;;;;;;;38.30;21.85;;;7.80;99.90;;;;;;4928754;28;20150;-70
2022/12/31 12:48:43;;;;;;;38.80;24.85;;;7.70;99.90;;;;;;4917143;28;20058;-71
2022/12/31 12:51:19;;;;;;;36.55;20.77;;;7.60;99.90;;;;;;4919601;28;20407;-70
2022/12/31 12:53:50;;;;;;;39.20;22.85;;;7.60;99.90;;;;;;4932141;28;20042;-70
2022/12/31 12:56:46;;;;;;;36.47;20.77;;;7.60;99.90;;;;;;4927371;28;20405;-71
2022/12/31 12:59:30;;;;;;;38.30;22.27;;;7.50;99.90;;;;;;4932023;28;20035;-71
2022/12/31 13:02:17;;;;;;;40.05;24.38;;;7.50;99.90;;;;;;4918062;28;20059;-71
2022/12/31 13:04:46;;;;;;;40.05;22.90;;;7.50;99.90;;;;;;4920181;28;20057;-70
2022/12/31 13:07:36;;;;;;;45.85;27.00;;;7.50;99.90;;;;;;4917233;28;20052;-71
2022/12/31 13:13:10;;;;;;;50.53;30.20;;;7.60;99.90;;;;;;4910146;28;20074;-70
2022/12/31 13:15:49;;;;;;;45.17;24.90;;;7.70;99.90;;;;;;4895480;28;20211;-71
2022/12/31 13:18:23;;;;;;;37.90;22.05;;;7.70;99.90;;;;;;4906719;28;20387;-70
2022/12/31 13:20:54;;;;;;;40.78;22.80;;;7.70;99.90;;;;;;4897586;28;20580;-71
2022/12/31 13:26:08;;;;;;;42.47;24.15;;;7.70;99.90;;;;;;4901454;28;20070;-71
2022/12/31 13:28:37;;;;;;;45.05;25.50;;;7.80;99.90;;;;;;4900589;28;20062;-74
2022/12/31 13:31:08;;;;;;;45.42;25.75;;;7.80;99.90;;;;;;4920326;28;20906;-71
2022/12/31 13:33:40;;;;;;;43.03;25.20;;;7.80;99.90;;;;;;4924503;28;20657;-72
2022/12/31 13:36:15;;;;;;;43.50;25.10;;;7.80;99.90;;;;;;4905843;28;20051;-71
2022/12/31 13:38:51;;;;;;;46.70;25.27;;;7.70;99.90;;;;;;4871825;28;20134;-67
2022/12/31 13:41:18;;;;;;;47.75;24.88;;;7.70;99.90;;;;;;4901523;23;23229;-69
2022/12/31 13:44:14;;;;;;;45.50;26.13;;;7.70;99.90;;;;;;4875924;29;20127;-71
2022/12/31 13:46:43;;;;;;;42.53;23.35;;;7.70;99.90;;;;;;4901501;28;20056;-71
2022/12/31 14:21:00;;;;;;;51.33;29.88;;;7.80;99.90;;;;;;4909487;23;20134;-67
2022/12/31 14:23:42;;;;;;;44.28;25.67;;;7.80;99.90;;;;;;5225047;23;20094;-68
2022/12/31 14:26:28;;;;;;;42.38;23.25;;;7.80;99.90;;;;;;4890040;29;20166;-68
2022/12/31 14:29:01;;;;;;;41.58;24.05;;;7.80;99.90;;;;;;4911521;29;20531;-69
2022/12/31 14:31:52;;;;;;;84.13;55.80;;;7.90;99.90;;;;;;4913695;29;20054;-69
2022/12/31 14:34:46;;;;;;;60.20;38.03;;;7.90;99.90;;;;;;4902140;29;20652;-69
2022/12/31 14:37:46;;;;;;;62.75;36.83;;;7.90;99.90;;;;;;4913774;29;20044;-70
2022/12/31 14:40:41;;;;;;;58.97;34.60;;;8.00;99.90;;;;;;4864960;29;20264;-70
2022/12/31 14:43:41;;;;;;;47.25;27.85;;;8.00;99.90;;;;;;4914469;29;21391;-68
2022/12/31 14:46:35;;;;;;;41.17;23.88;;;8.00;99.90;;;;;;4919095;29;20622;-68